createdAt,value
2023-05-05T00:00:50.796Z,95334.00
2023-05-05T00:01:50.907Z,95334.00
2023-05-05T00:02:50.892Z,95334.00
2023-05-05T00:03:51.044Z,95332.00
2023-05-05T00:04:50.953Z,95334.00
2023-05-05T00:05:51.010Z,95332.00
2023-05-05T00:06:50.978Z,95332.00
2023-05-05T00:07:51.023Z,95330.00
2023-05-05T00:08:51.040Z,95328.00
2023-05-05T00:09:51.068Z,95330.00
2023-05-05T00:10:51.142Z,95330.00
2023-05-05T00:11:51.128Z,95326.00
2023-05-05T00:12:51.173Z,95328.00
2023-05-05T00:13:51.216Z,95328.00
2023-05-05T00:14:51.258Z,95330.00
2023-05-05T00:15:51.330Z,95330.00
2023-05-05T00:16:51.413Z,95324.00
2023-05-05T00:17:51.458Z,95328.00
2023-05-05T00:18:51.422Z,95328.00
2023-05-05T00:19:51.505Z,95332.00
2023-05-05T00:20:51.565Z,95330.00
2023-05-05T00:21:51.587Z,95330.00
2023-05-05T00:22:51.652Z,95330.00
2023-05-05T00:23:51.737Z,95330.00
2023-05-05T00:24:51.756Z,95330.00
2023-05-05T00:25:51.846Z,95330.00
2023-05-05T00:26:51.917Z,95330.00
2023-05-05T00:27:51.933Z,95330.00
2023-05-05T00:28:52.040Z,95332.00
2023-05-05T00:29:52.058Z,95326.00
2023-05-05T00:30:52.148Z,95330.00
2023-05-05T00:31:52.174Z,95330.00
2023-05-05T00:32:52.292Z,95332.00
2023-05-05T00:33:52.313Z,95334.00
2023-05-05T00:34:52.383Z,95332.00
2023-05-05T00:35:52.510Z,95334.00
2023-05-05T00:36:52.464Z,95336.00
2023-05-05T00:37:52.552Z,95336.00
2023-05-05T00:38:52.645Z,95336.00
2023-05-05T00:39:52.696Z,95334.00
2023-05-05T00:40:52.740Z,95330.00
2023-05-05T00:41:52.821Z,95334.00
2023-05-05T00:42:52.869Z,95330.00
2023-05-05T00:43:52.920Z,95334.00
2023-05-05T00:44:52.937Z,95336.00
2023-05-05T00:45:52.986Z,95334.00
2023-05-05T00:46:53.052Z,95336.00
2023-05-05T00:47:53.095Z,95338.00
2023-05-05T00:48:53.156Z,95336.00
2023-05-05T00:49:53.149Z,95336.00
2023-05-05T00:50:53.226Z,95334.00
2023-05-05T00:51:53.198Z,95332.00
2023-05-05T00:52:53.274Z,95334.00
2023-05-05T00:53:53.317Z,95334.00
2023-05-05T00:54:53.362Z,95334.00
2023-05-05T00:55:53.410Z,95332.00
2023-05-05T00:56:53.458Z,95332.00
2023-05-05T00:57:53.497Z,95332.00
2023-05-05T00:58:53.538Z,95334.00
2023-05-05T00:59:53.548Z,95334.00
2023-05-05T01:00:53.698Z,95334.00
2023-05-05T01:01:53.651Z,95332.00
2023-05-05T01:02:53.716Z,95336.00
2023-05-05T01:03:53.777Z,95334.00
2023-05-05T01:04:53.741Z,95332.00
2023-05-05T01:05:53.806Z,95328.00
2023-05-05T01:06:53.838Z,95330.00
2023-05-05T01:07:53.879Z,95330.00
2023-05-05T01:08:53.924Z,95330.00
2023-05-05T01:10:07.212Z,95330.00
2023-05-05T01:10:55.296Z,95328.00
2023-05-05T01:11:54.040Z,95328.00
2023-05-05T01:12:54.087Z,95328.00
2023-05-05T01:13:54.045Z,95330.00
2023-05-05T01:14:54.074Z,95328.00
2023-05-05T01:15:54.134Z,95324.00
2023-05-05T01:16:54.138Z,95328.00
2023-05-05T01:17:54.235Z,95326.00
2023-05-05T01:18:54.148Z,95326.00
2023-05-05T01:19:54.215Z,95326.00
2023-05-05T01:20:54.213Z,95326.00
2023-05-05T01:21:54.260Z,95326.00
2023-05-05T01:22:54.253Z,95326.00
2023-05-05T01:23:54.310Z,95326.00
2023-05-05T01:24:54.306Z,95330.00
2023-05-05T01:25:54.344Z,95328.00
2023-05-05T01:26:54.359Z,95332.00
2023-05-05T01:27:54.399Z,95330.00
2023-05-05T01:28:54.416Z,95330.00
2023-05-05T01:29:54.434Z,95332.00
2023-05-05T01:30:54.459Z,95334.00
2023-05-05T01:31:54.568Z,95332.00
2023-05-05T01:32:54.543Z,95334.00
2023-05-05T01:33:54.519Z,95336.00
2023-05-05T01:34:54.529Z,95336.00
2023-05-05T01:35:54.584Z,95336.00
2023-05-05T01:36:54.580Z,95334.00
2023-05-05T01:37:54.629Z,95336.00
2023-05-05T01:38:54.615Z,95336.00
2023-05-05T01:39:54.644Z,95336.00
2023-05-05T01:40:54.681Z,95336.00
2023-05-05T01:41:54.736Z,95338.00
2023-05-05T01:42:54.735Z,95338.00
2023-05-05T01:43:54.768Z,95340.00
2023-05-05T01:44:54.794Z,95338.00
2023-05-05T01:45:54.867Z,95340.00
2023-05-05T01:46:54.877Z,95340.00
2023-05-05T01:47:54.938Z,95340.00
2023-05-05T01:48:54.949Z,95340.00
2023-05-05T01:49:54.973Z,95342.00
2023-05-05T01:50:55.003Z,95340.00
2023-05-05T01:51:55.037Z,95338.00
2023-05-05T01:52:55.060Z,95338.00
2023-05-05T01:53:55.131Z,95340.00
2023-05-05T01:54:55.159Z,95336.00
2023-05-05T01:55:55.199Z,95338.00
2023-05-05T01:56:55.209Z,95338.00
2023-05-05T01:57:55.243Z,95340.00
2023-05-05T01:58:55.258Z,95342.00
2023-05-05T01:59:55.319Z,95342.00
2023-05-05T02:00:55.405Z,95344.00
2023-05-05T02:01:55.409Z,95344.00
2023-05-05T02:02:55.436Z,95344.00
2023-05-05T02:03:55.487Z,95344.00
2023-05-05T02:04:55.511Z,95340.00
2023-05-05T02:05:55.515Z,95340.00
2023-05-05T02:06:55.551Z,95340.00
2023-05-05T02:07:55.582Z,95342.00
2023-05-05T02:08:55.594Z,95346.00
2023-05-05T02:09:55.634Z,95344.00
2023-05-05T02:10:55.664Z,95344.00
2023-05-05T02:11:55.741Z,95348.00
2023-05-05T02:12:55.798Z,95348.00
2023-05-05T02:13:55.865Z,95350.00
2023-05-05T02:14:55.815Z,95348.00
2023-05-05T02:15:55.850Z,95350.00
2023-05-05T02:16:55.877Z,95348.00
2023-05-05T02:17:55.918Z,95354.00
2023-05-05T02:18:55.938Z,95354.00
2023-05-05T02:19:55.947Z,95354.00
2023-05-05T02:20:55.986Z,95352.00
2023-05-05T02:21:56.032Z,95350.00
2023-05-05T02:22:56.068Z,95350.00
2023-05-05T02:23:56.090Z,95354.00
2023-05-05T02:24:56.147Z,95354.00
2023-05-05T02:25:56.197Z,95354.00
2023-05-05T02:26:56.215Z,95354.00
2023-05-05T02:27:56.269Z,95352.00
2023-05-05T02:28:56.288Z,95356.00
2023-05-05T02:29:56.318Z,95356.00
2023-05-05T02:30:56.373Z,95358.00
2023-05-05T02:31:56.386Z,95356.00
2023-05-05T02:32:56.465Z,95356.00
2023-05-05T02:33:56.424Z,95354.00
2023-05-05T02:34:56.464Z,95354.00
2023-05-05T02:35:56.521Z,95352.00
2023-05-05T02:36:56.550Z,95354.00
2023-05-05T02:37:56.586Z,95356.00
2023-05-05T02:38:56.622Z,95358.00
2023-05-05T02:39:56.660Z,95360.00
2023-05-05T02:40:56.671Z,95362.00
2023-05-05T02:41:56.750Z,95362.00
2023-05-05T02:42:56.767Z,95360.00
2023-05-05T02:43:56.738Z,95358.00
2023-05-05T02:44:56.798Z,95360.00
2023-05-05T02:45:56.779Z,95358.00
2023-05-05T02:46:56.843Z,95360.00
2023-05-05T02:47:56.913Z,95360.00
2023-05-05T02:48:56.943Z,95362.00
2023-05-05T02:49:56.937Z,95360.00
2023-05-05T02:50:57.007Z,95363.00
2023-05-05T02:51:57.058Z,95363.00
2023-05-05T02:52:57.089Z,95363.00
2023-05-05T02:53:57.191Z,95363.00
2023-05-05T02:54:57.181Z,95362.00
2023-05-05T02:55:57.228Z,95363.00
2023-05-05T02:56:57.259Z,95363.00
2023-05-05T02:57:57.294Z,95362.00
2023-05-05T02:58:57.338Z,95360.00
2023-05-05T02:59:57.407Z,95362.00
2023-05-05T03:00:57.464Z,95360.00
2023-05-05T03:01:57.643Z,95363.00
2023-05-05T03:02:57.671Z,95362.00
2023-05-05T03:03:57.722Z,95362.00
2023-05-05T03:04:57.639Z,95363.00
2023-05-05T03:05:57.688Z,95363.00
2023-05-05T03:06:57.733Z,95367.00
2023-05-05T03:07:57.774Z,95365.00
2023-05-05T03:08:57.831Z,95365.00
2023-05-05T03:09:57.848Z,95363.00
2023-05-05T03:10:57.909Z,95362.00
2023-05-05T03:11:57.908Z,95365.00
2023-05-05T03:12:58.001Z,95362.00
2023-05-05T03:13:58.018Z,95362.00
2023-05-05T03:14:58.025Z,95362.00
2023-05-05T03:15:58.131Z,95358.00
2023-05-05T03:16:58.153Z,95362.00
2023-05-05T03:17:58.165Z,95365.00
2023-05-05T03:18:58.197Z,95365.00
2023-05-05T03:19:58.251Z,95367.00
2023-05-05T03:20:58.343Z,95365.00
2023-05-05T03:21:58.384Z,95363.00
2023-05-05T03:22:58.442Z,95363.00
2023-05-05T03:23:58.543Z,95363.00
2023-05-05T03:24:58.635Z,95360.00
2023-05-05T03:25:58.760Z,95363.00
2023-05-05T03:26:58.798Z,95362.00
2023-05-05T03:27:58.917Z,95365.00
2023-05-05T03:28:58.991Z,95363.00
2023-05-05T03:29:59.051Z,95365.00
2023-05-05T03:30:59.200Z,95365.00
2023-05-05T03:31:59.313Z,95365.00
2023-05-05T03:32:59.321Z,95367.00
2023-05-05T03:33:59.426Z,95369.00
2023-05-05T03:34:59.504Z,95365.00
2023-05-05T03:35:59.531Z,95367.00
2023-05-05T03:36:59.622Z,95365.00
2023-05-05T03:37:59.666Z,95365.00
2023-05-05T03:38:59.739Z,95363.00
2023-05-05T03:39:59.784Z,95367.00
2023-05-05T03:40:59.867Z,95367.00
2023-05-05T03:41:59.965Z,95365.00
2023-05-05T03:42:59.998Z,95367.00
2023-05-05T03:44:00.085Z,95371.00
2023-05-05T03:45:00.202Z,95369.00
2023-05-05T03:46:00.383Z,95369.00
2023-05-05T03:47:00.344Z,95367.00
2023-05-05T03:48:00.414Z,95369.00
2023-05-05T03:49:00.459Z,95365.00
2023-05-05T03:50:00.596Z,95365.00
2023-05-05T03:51:00.652Z,95363.00
2023-05-05T03:52:00.690Z,95365.00
2023-05-05T03:53:00.759Z,95363.00
2023-05-05T03:54:00.775Z,95363.00
2023-05-05T03:55:00.838Z,95360.00
2023-05-05T03:56:00.903Z,95360.00
2023-05-05T03:57:00.947Z,95358.00
2023-05-05T03:58:00.978Z,95358.00
2023-05-05T03:59:01.028Z,95358.00
2023-05-05T04:00:01.072Z,95362.00
2023-05-05T04:01:01.109Z,95362.00
2023-05-05T04:02:01.189Z,95360.00
2023-05-05T04:03:01.282Z,95358.00
2023-05-05T04:04:01.287Z,95358.00
2023-05-05T04:05:01.329Z,95360.00
2023-05-05T04:06:01.420Z,95360.00
2023-05-05T04:07:01.483Z,95360.00
2023-05-05T04:08:01.536Z,95360.00
2023-05-05T04:09:01.605Z,95360.00
2023-05-05T04:10:01.689Z,95358.00
2023-05-05T04:11:01.728Z,95360.00
2023-05-05T04:12:01.771Z,95360.00
2023-05-05T04:13:01.870Z,95360.00
2023-05-05T04:14:01.881Z,95360.00
2023-05-05T04:15:01.966Z,95362.00
2023-05-05T04:16:02.076Z,95362.00
2023-05-05T04:17:02.091Z,95362.00
2023-05-05T04:18:02.112Z,95362.00
2023-05-05T04:19:02.177Z,95362.00
2023-05-05T04:20:02.210Z,95363.00
2023-05-05T04:21:02.316Z,95363.00
2023-05-05T04:22:02.357Z,95363.00
2023-05-05T04:23:02.382Z,95363.00
2023-05-05T04:24:02.466Z,95367.00
2023-05-05T04:25:02.574Z,95365.00
2023-05-05T04:26:02.732Z,95369.00
2023-05-05T04:27:02.711Z,95365.00
2023-05-05T04:28:02.756Z,95362.00
2023-05-05T04:29:02.850Z,95363.00
2023-05-05T04:30:02.968Z,95363.00
2023-05-05T04:31:03.129Z,95367.00
2023-05-05T04:32:03.143Z,95367.00
2023-05-05T04:33:03.254Z,95371.00
2023-05-05T04:34:03.195Z,95371.00
2023-05-05T04:35:03.319Z,95373.00
2023-05-05T04:36:03.400Z,95371.00
2023-05-05T04:37:03.482Z,95373.00
2023-05-05T04:38:03.574Z,95373.00
2023-05-05T04:39:03.656Z,95373.00
2023-05-05T04:40:03.678Z,95375.00
2023-05-05T04:41:03.781Z,95377.00
2023-05-05T04:42:03.882Z,95377.00
2023-05-05T04:43:03.952Z,95377.00
2023-05-05T04:44:04.001Z,95379.00
2023-05-05T04:45:04.083Z,95379.00
2023-05-05T04:46:04.186Z,95385.00
2023-05-05T04:47:04.272Z,95385.00
2023-05-05T04:48:04.317Z,95385.00
2023-05-05T04:49:04.375Z,95385.00
2023-05-05T04:50:04.451Z,95385.00
2023-05-05T04:51:04.514Z,95385.00
2023-05-05T04:52:04.587Z,95379.00
2023-05-05T04:53:04.673Z,95383.00
2023-05-05T04:54:04.764Z,95381.00
2023-05-05T04:55:04.857Z,95383.00
2023-05-05T04:56:04.911Z,95383.00
2023-05-05T04:57:05.007Z,95385.00
2023-05-05T04:58:05.084Z,95385.00
2023-05-05T04:59:05.132Z,95389.00
2023-05-05T05:00:05.360Z,95391.00
2023-05-05T05:02:24.273Z,95389.00
2023-05-05T05:03:24.331Z,95391.00
2023-05-05T05:04:24.191Z,95393.00
2023-05-05T05:05:24.174Z,95389.00
2023-05-05T05:06:24.172Z,95391.00
2023-05-05T05:07:24.162Z,95389.00
2023-05-05T05:08:24.163Z,95389.00
2023-05-05T05:09:24.122Z,95389.00
2023-05-05T05:10:24.126Z,95393.00
2023-05-05T05:11:24.110Z,95393.00
2023-05-05T05:12:24.127Z,95393.00
2023-05-05T05:13:24.073Z,95397.00
2023-05-05T05:14:24.077Z,95395.00
2023-05-05T05:15:24.048Z,95397.00
2023-05-05T05:16:24.084Z,95395.00
2023-05-05T05:17:24.076Z,95391.00
2023-05-05T05:18:23.978Z,95391.00
2023-05-05T05:19:23.978Z,95391.00
2023-05-05T05:20:23.957Z,95391.00
2023-05-05T05:21:23.979Z,95391.00
2023-05-05T05:22:23.951Z,95391.00
2023-05-05T05:23:23.965Z,95393.00
2023-05-05T05:24:24.015Z,95391.00
2023-05-05T05:25:23.944Z,95391.00
2023-05-05T05:26:23.906Z,95393.00
2023-05-05T05:27:23.912Z,95395.00
2023-05-05T05:28:23.895Z,95389.00
2023-05-05T05:29:23.975Z,95389.00
2023-05-05T05:30:23.853Z,95389.00
2023-05-05T05:31:23.933Z,95389.00
2023-05-05T05:32:23.954Z,95389.00
2023-05-05T05:33:23.845Z,95393.00
2023-05-05T05:34:23.842Z,95393.00
2023-05-05T05:35:23.779Z,95393.00
2023-05-05T05:36:23.848Z,95393.00
2023-05-05T05:37:23.800Z,95393.00
2023-05-05T05:38:23.862Z,95395.00
2023-05-05T05:39:23.736Z,95391.00
2023-05-05T05:40:23.714Z,95395.00
2023-05-05T05:41:23.690Z,95395.00
2023-05-05T05:42:23.941Z,95397.00
2023-05-05T05:43:23.634Z,95397.00
2023-05-05T05:44:23.676Z,95401.00
2023-05-05T05:45:30.626Z,95397.00
2023-05-05T05:46:23.689Z,95399.00
2023-05-05T05:47:24.020Z,95399.00
2023-05-05T05:48:23.764Z,95395.00
2023-05-05T05:49:23.630Z,95399.00
2023-05-05T05:50:23.588Z,95395.00
2023-05-05T05:51:23.601Z,95399.00
2023-05-05T05:52:23.565Z,95399.00
2023-05-05T05:53:23.546Z,95401.00
2023-05-05T05:54:23.537Z,95399.00
2023-05-05T05:55:23.553Z,95397.00
2023-05-05T05:56:23.500Z,95397.00
2023-05-05T05:57:23.498Z,95399.00
2023-05-05T05:58:23.458Z,95399.00
2023-05-05T05:59:23.434Z,95399.00
2023-05-05T06:00:23.450Z,95403.00
2023-05-05T06:01:23.428Z,95399.00
2023-05-05T06:02:23.459Z,95401.00
2023-05-05T06:03:23.676Z,95401.00
2023-05-05T06:04:23.408Z,95401.00
2023-05-05T06:05:23.362Z,95403.00
2023-05-05T06:06:23.376Z,95401.00
2023-05-05T06:07:23.337Z,95401.00
2023-05-05T06:08:25.073Z,95399.00
2023-05-05T06:09:23.295Z,95403.00
2023-05-05T06:10:27.864Z,95401.00
2023-05-05T06:11:24.235Z,95399.00
2023-05-05T06:12:23.556Z,95399.00
2023-05-05T06:13:23.164Z,95401.00
2023-05-05T06:14:23.178Z,95401.00
2023-05-05T06:15:23.127Z,95401.00
2023-05-05T06:16:23.182Z,95399.00
2023-05-05T06:17:23.132Z,95397.00
2023-05-05T06:18:23.143Z,95395.00
2023-05-05T06:19:23.087Z,95397.00
2023-05-05T06:20:23.042Z,95395.00
2023-05-05T06:21:23.026Z,95395.00
2023-05-05T06:22:22.999Z,95397.00
2023-05-05T06:23:23.035Z,95391.00
2023-05-05T06:24:22.959Z,95391.00
2023-05-05T06:25:22.935Z,95391.00
2023-05-05T06:26:22.945Z,95391.00
2023-05-05T06:27:22.898Z,95393.00
2023-05-05T06:28:22.965Z,95393.00
2023-05-05T06:29:22.880Z,95393.00
2023-05-05T06:30:22.843Z,95389.00
2023-05-05T06:31:22.916Z,95387.00
2023-05-05T06:32:22.842Z,95391.00
2023-05-05T06:33:22.842Z,95389.00
2023-05-05T06:34:22.801Z,95389.00
2023-05-05T06:35:22.776Z,95383.00
2023-05-05T06:36:22.858Z,95383.00
2023-05-05T06:37:22.753Z,95383.00
2023-05-05T06:38:22.719Z,95383.00
2023-05-05T06:39:22.741Z,95379.00
2023-05-05T06:40:22.685Z,95381.00
2023-05-05T06:41:22.688Z,95377.00
2023-05-05T06:42:22.655Z,95373.00
2023-05-05T06:43:22.694Z,95375.00
2023-05-05T06:44:22.691Z,95371.00
2023-05-05T06:45:22.694Z,95373.00
2023-05-05T06:46:23.529Z,95373.00
2023-05-05T06:47:22.725Z,95367.00
2023-05-05T06:48:23.065Z,95373.00
2023-05-05T06:49:22.712Z,95369.00
2023-05-05T06:50:22.755Z,95367.00
2023-05-05T06:51:22.721Z,95367.00
2023-05-05T06:52:22.680Z,95365.00
2023-05-05T06:53:23.002Z,95367.00
2023-05-05T06:54:22.739Z,95365.00
2023-05-05T06:55:22.755Z,95362.00
2023-05-05T06:56:22.748Z,95363.00
2023-05-05T06:57:22.734Z,95365.00
2023-05-05T06:58:22.962Z,95365.00
2023-05-05T06:59:22.741Z,95365.00
2023-05-05T07:00:22.736Z,95362.00
2023-05-05T07:01:22.792Z,95365.00
2023-05-05T07:02:24.094Z,95365.00
2023-05-05T07:03:22.795Z,95365.00
2023-05-05T07:04:22.755Z,95365.00
2023-05-05T07:05:22.715Z,95363.00
2023-05-05T07:06:22.666Z,95362.00
2023-05-05T07:07:22.744Z,95362.00
2023-05-05T07:08:22.994Z,95360.00
2023-05-05T07:09:22.642Z,95362.00
2023-05-05T07:10:22.598Z,95356.00
2023-05-05T07:11:22.584Z,95354.00
2023-05-05T07:12:22.580Z,95356.00
2023-05-05T07:13:22.568Z,95354.00
2023-05-05T07:14:24.388Z,95354.00
2023-05-05T07:15:28.739Z,95354.00
2023-05-05T07:16:23.587Z,95352.00
2023-05-05T07:17:22.517Z,95350.00
2023-05-05T07:18:22.554Z,95350.00
2023-05-05T07:19:22.439Z,95348.00
2023-05-05T07:20:22.547Z,95346.00
2023-05-05T07:21:22.447Z,95342.00
2023-05-05T07:22:22.367Z,95344.00
2023-05-05T07:23:23.377Z,95342.00
2023-05-05T07:24:22.414Z,95340.00
2023-05-05T07:25:22.367Z,95340.00
2023-05-05T07:26:22.385Z,95340.00
2023-05-05T07:27:22.278Z,95340.00
2023-05-05T07:28:22.534Z,95340.00
2023-05-05T07:29:22.248Z,95338.00
2023-05-05T07:30:22.371Z,95338.00
2023-05-05T07:31:22.225Z,95340.00
2023-05-05T07:32:22.271Z,95336.00
2023-05-05T07:33:22.203Z,95336.00
2023-05-05T07:34:22.201Z,95332.00
2023-05-05T07:35:22.249Z,95332.00
2023-05-05T07:36:22.211Z,95328.00
2023-05-05T07:37:22.143Z,95328.00
2023-05-05T07:38:22.150Z,95328.00
2023-05-05T07:39:23.006Z,95326.00
2023-05-05T07:40:22.112Z,95324.00
2023-05-05T07:41:22.095Z,95328.00
2023-05-05T07:42:22.068Z,95328.00
2023-05-05T07:43:22.078Z,95324.00
2023-05-05T07:44:22.093Z,95324.00
2023-05-05T07:45:22.114Z,95324.00
2023-05-05T07:46:22.177Z,95318.00
2023-05-05T07:47:22.168Z,95320.00
2023-05-05T07:48:22.213Z,95315.00
2023-05-05T07:49:22.204Z,95313.00
2023-05-05T07:50:22.211Z,95313.00
2023-05-05T07:51:22.237Z,95309.00
2023-05-05T07:52:30.280Z,95307.00
2023-05-05T07:53:23.213Z,95303.00
2023-05-05T07:54:22.183Z,95307.00
2023-05-05T07:55:22.171Z,95303.00
2023-05-05T07:56:22.168Z,95301.00
2023-05-05T07:57:22.088Z,95297.00
2023-05-05T07:58:22.135Z,95297.00
2023-05-05T07:59:22.087Z,95297.00
2023-05-05T08:00:22.119Z,95295.00
2023-05-05T08:01:22.044Z,95297.00
2023-05-05T08:02:22.125Z,95295.00
2023-05-05T08:03:22.135Z,95295.00
2023-05-05T08:04:22.034Z,95295.00
2023-05-05T08:05:21.966Z,95297.00
2023-05-05T08:06:21.944Z,95295.00
2023-05-05T08:07:21.942Z,95295.00
2023-05-05T08:08:22.012Z,95293.00
2023-05-05T08:09:21.895Z,95295.00
2023-05-05T08:10:21.878Z,95287.00
2023-05-05T08:11:21.843Z,95289.00
2023-05-05T08:12:22.530Z,95291.00
2023-05-05T08:13:21.829Z,95287.00
2023-05-05T08:14:21.770Z,95289.00
2023-05-05T08:15:21.794Z,95285.00
2023-05-05T08:16:21.805Z,95283.00
2023-05-05T08:17:21.774Z,95283.00
2023-05-05T08:18:21.810Z,95283.00
2023-05-05T08:19:28.972Z,95283.00
2023-05-05T08:20:22.772Z,95281.00
2023-05-05T08:21:21.758Z,95279.00
2023-05-05T08:22:21.791Z,95279.00
2023-05-05T08:23:21.760Z,95279.00
2023-05-05T08:24:21.799Z,95277.00
2023-05-05T08:25:21.753Z,95275.00
2023-05-05T08:26:21.715Z,95277.00
2023-05-05T08:27:21.657Z,95273.00
2023-05-05T08:28:21.669Z,95269.00
2023-05-05T08:29:21.638Z,95271.00
2023-05-05T08:30:21.702Z,95268.00
2023-05-05T08:31:21.606Z,95268.00
2023-05-05T08:32:21.593Z,95266.00
2023-05-05T08:33:22.062Z,95264.00
2023-05-05T08:34:21.614Z,95264.00
2023-05-05T08:35:21.568Z,95260.00
2023-05-05T08:36:21.558Z,95260.00
2023-05-05T08:37:21.589Z,95258.00
2023-05-05T08:38:21.537Z,95258.00
2023-05-05T08:39:21.521Z,95258.00
2023-05-05T08:40:21.571Z,95252.00
2023-05-05T08:41:21.516Z,95248.00
2023-05-05T08:42:35.537Z,95252.00
2023-05-05T08:43:22.529Z,95246.00
2023-05-05T08:44:21.531Z,95242.00
2023-05-05T08:45:21.496Z,95242.00
2023-05-05T08:46:21.503Z,95242.00
2023-05-05T08:47:21.441Z,95246.00
2023-05-05T08:48:21.544Z,95242.00
2023-05-05T08:49:21.441Z,95238.00
2023-05-05T08:50:21.484Z,95234.00
2023-05-05T08:51:21.438Z,95232.00
2023-05-05T08:52:21.424Z,95234.00
2023-05-05T08:53:21.512Z,95234.00
2023-05-05T08:54:21.400Z,95232.00
2023-05-05T08:55:21.346Z,95232.00
2023-05-05T08:56:21.384Z,95236.00
2023-05-05T08:57:21.291Z,95232.00
2023-05-05T08:58:21.306Z,95234.00
2023-05-05T08:59:21.306Z,95236.00
2023-05-05T09:00:21.228Z,95230.00
2023-05-05T09:01:21.260Z,95230.00
2023-05-05T09:02:21.346Z,95230.00
2023-05-05T09:03:21.236Z,95224.00
2023-05-05T09:04:21.160Z,95222.00
2023-05-05T09:05:21.110Z,95221.00
2023-05-05T09:06:21.088Z,95222.00
2023-05-05T09:07:21.090Z,95222.00
2023-05-05T09:08:21.050Z,95221.00
2023-05-05T09:09:21.043Z,95217.00
2023-05-05T09:10:21.124Z,95219.00
2023-05-05T09:11:21.151Z,95215.00
2023-05-05T09:12:21.205Z,95215.00
2023-05-05T09:13:21.195Z,95215.00
2023-05-05T09:14:21.211Z,95211.00
2023-05-05T09:15:21.435Z,95213.00
2023-05-05T09:16:21.406Z,95211.00
2023-05-05T09:17:21.251Z,95211.00
2023-05-05T09:18:21.324Z,95207.00
2023-05-05T09:19:21.398Z,95207.00
2023-05-05T09:20:21.394Z,95205.00
2023-05-05T09:21:21.350Z,95205.00
2023-05-05T09:22:21.487Z,95201.00
2023-05-05T09:23:21.458Z,95203.00
2023-05-05T09:24:21.518Z,95201.00
2023-05-05T09:25:21.493Z,95199.00
2023-05-05T09:26:21.575Z,95201.00
2023-05-05T09:27:21.575Z,95199.00
2023-05-05T09:28:21.615Z,95199.00
2023-05-05T09:29:22.062Z,95195.00
2023-05-05T09:30:21.711Z,95193.00
2023-05-05T09:31:21.729Z,95193.00
2023-05-05T09:32:21.728Z,95189.00
2023-05-05T09:33:21.818Z,95191.00
2023-05-05T09:34:22.141Z,95187.00
2023-05-05T09:35:21.866Z,95185.00
2023-05-05T09:36:21.850Z,95181.00
2023-05-05T09:37:21.875Z,95183.00
2023-05-05T09:38:21.888Z,95177.00
2023-05-05T09:39:21.921Z,95179.00
2023-05-05T09:40:22.109Z,95179.00
2023-05-05T09:41:22.017Z,95175.00
2023-05-05T09:42:22.016Z,95177.00
2023-05-05T09:43:22.137Z,95174.00
2023-05-05T09:44:22.656Z,95174.00
2023-05-05T09:45:22.142Z,95174.00
2023-05-05T09:46:22.189Z,95172.00
2023-05-05T09:47:29.373Z,95170.00
2023-05-05T09:48:23.153Z,95170.00
2023-05-05T09:49:22.578Z,95172.00
2023-05-05T09:50:22.070Z,95166.00
2023-05-05T09:51:22.043Z,95166.00
2023-05-05T09:52:22.013Z,95166.00
2023-05-05T09:53:22.584Z,95166.00
2023-05-05T09:54:22.125Z,95164.00
2023-05-05T09:55:21.924Z,95164.00
2023-05-05T09:56:21.892Z,95162.00
2023-05-05T09:57:21.873Z,95160.00
2023-05-05T09:58:21.848Z,95152.00
2023-05-05T09:59:21.842Z,95148.00
2023-05-05T10:00:21.912Z,95152.00
2023-05-05T10:01:21.868Z,95150.00
2023-05-05T10:02:21.815Z,95148.00
2023-05-05T10:03:21.795Z,95146.00
2023-05-05T10:04:21.857Z,95146.00
2023-05-05T10:05:21.810Z,95144.00
2023-05-05T10:06:21.778Z,95142.00
2023-05-05T10:07:21.840Z,95142.00
2023-05-05T10:08:21.846Z,95138.00
2023-05-05T10:09:21.858Z,95136.00
2023-05-05T10:10:21.842Z,95140.00
2023-05-05T10:11:21.825Z,95134.00
2023-05-05T10:12:21.850Z,95134.00
2023-05-05T10:13:21.857Z,95134.00
2023-05-05T10:14:21.896Z,95130.00
2023-05-05T10:15:21.860Z,95130.00
2023-05-05T10:16:22.074Z,95126.00
2023-05-05T10:17:21.879Z,95128.00
2023-05-05T10:18:21.954Z,95124.00
2023-05-05T10:19:21.923Z,95124.00
2023-05-05T10:20:21.941Z,95117.00
2023-05-05T10:21:21.999Z,95121.00
2023-05-05T10:22:21.941Z,95117.00
2023-05-05T10:23:21.986Z,95117.00
2023-05-05T10:24:21.998Z,95115.00
2023-05-05T10:25:22.010Z,95111.00
2023-05-05T10:26:22.004Z,95111.00
2023-05-05T10:27:22.060Z,95113.00
2023-05-05T10:28:22.212Z,95109.00
2023-05-05T10:29:22.143Z,95109.00
2023-05-05T10:30:22.055Z,95107.00
2023-05-05T10:31:26.321Z,95105.00
2023-05-05T10:32:50.880Z,95103.00
2023-05-05T10:34:22.082Z,95097.00
2023-05-05T10:35:21.981Z,95095.00
2023-05-05T10:36:21.986Z,95097.00
2023-05-05T10:37:21.957Z,95095.00
2023-05-05T10:38:23.096Z,95089.00
2023-05-05T10:39:21.886Z,95085.00
2023-05-05T10:40:21.842Z,95085.00
2023-05-05T10:41:21.824Z,95079.00
2023-05-05T10:42:21.821Z,95079.00
2023-05-05T10:43:21.797Z,95075.00
2023-05-05T10:44:21.800Z,95079.00
2023-05-05T10:45:21.742Z,95079.00
2023-05-05T10:46:21.763Z,95075.00
2023-05-05T10:47:21.854Z,95072.00
2023-05-05T10:48:21.729Z,95072.00
2023-05-05T10:49:21.596Z,95066.00
2023-05-05T10:50:21.588Z,95066.00
2023-05-05T10:51:35.283Z,95064.00
2023-05-05T10:52:22.512Z,95066.00
2023-05-05T10:53:21.487Z,95062.00
2023-05-05T10:54:21.443Z,95060.00
2023-05-05T10:55:21.427Z,95058.00
2023-05-05T10:56:21.386Z,95056.00
2023-05-05T10:57:21.335Z,95060.00
2023-05-05T10:58:21.309Z,95054.00
2023-05-05T10:59:21.299Z,95054.00
2023-05-05T11:00:22.073Z,95050.00
2023-05-05T11:01:21.238Z,95050.00
2023-05-05T11:02:21.190Z,95042.00
2023-05-05T11:03:21.257Z,95044.00
2023-05-05T11:04:21.293Z,95042.00
2023-05-05T11:05:21.249Z,95044.00
2023-05-05T11:06:21.240Z,95042.00
2023-05-05T11:07:21.239Z,95040.00
2023-05-05T11:08:21.250Z,95036.00
2023-05-05T11:09:21.305Z,95032.00
2023-05-05T11:10:21.357Z,95030.00
2023-05-05T11:11:21.316Z,95027.00
2023-05-05T11:12:21.379Z,95025.00
2023-05-05T11:13:21.512Z,95023.00
2023-05-05T11:14:21.373Z,95019.00
2023-05-05T11:15:21.405Z,95017.00
2023-05-05T11:16:21.437Z,95013.00
2023-05-05T11:17:21.389Z,95015.00
2023-05-05T11:18:21.400Z,95013.00
2023-05-05T11:19:21.433Z,95013.00
2023-05-05T11:20:21.587Z,95005.00
2023-05-05T11:21:21.521Z,95007.00
2023-05-05T11:22:21.477Z,95005.00
2023-05-05T11:23:21.497Z,95003.00
2023-05-05T11:24:21.479Z,95001.00
2023-05-05T11:25:21.521Z,95003.00
2023-05-05T11:26:21.524Z,94999.00
2023-05-05T11:27:21.582Z,94995.00
2023-05-05T11:28:21.533Z,94995.00
2023-05-05T11:29:21.693Z,94993.00
2023-05-05T11:30:21.569Z,94993.00
2023-05-05T11:31:21.671Z,94991.00
2023-05-05T11:32:21.625Z,94991.00
2023-05-05T11:33:21.621Z,94987.00
2023-05-05T11:34:21.641Z,94985.00
2023-05-05T11:35:22.106Z,94987.00
2023-05-05T11:36:21.726Z,94981.00
2023-05-05T11:37:21.657Z,94981.00
2023-05-05T11:38:21.704Z,94983.00
2023-05-05T11:39:21.699Z,94975.00
2023-05-05T11:40:21.773Z,94977.00
2023-05-05T11:41:21.717Z,94975.00
2023-05-05T11:42:21.720Z,94970.00
2023-05-05T11:43:21.705Z,94972.00
2023-05-05T11:44:21.737Z,94970.00
2023-05-05T11:45:21.794Z,94968.00
2023-05-05T11:46:21.799Z,94968.00
2023-05-05T11:47:21.816Z,94964.00